Time;durP1;ratioP1;P1;durP2;ratioP2;P2;SDS_P1;SDS_P2;PMS_P1;PMS_P2;Temp;Humidity;BMP_temperature;BMP_pressure;BME280_temperature;BME280_humidity;BME280_pressure;Samples;Min_cycle;Max_cycle;Signal;HPM_P1;HPM_P2
2023/12/26 00:01:18;;;;;;;10.38;6.50;;;7.30;75.30;;;;;;4911904;29;20527;-80
2023/12/26 00:03:44;;;;;;;6.75;5.70;;;7.30;75.40;;;;;;4904203;29;20498;-82
2023/12/26 00:06:09;;;;;;;8.45;6.15;;;7.30;75.50;;;;;;4924339;29;20103;-80
2023/12/26 00:08:35;;;;;;;8.02;6.20;;;7.30;75.40;;;;;;4911102;29;20031;-81
2023/12/26 00:11:02;;;;;;;9.02;5.97;;;7.30;75.40;;;;;;4923800;29;20102;-79
2023/12/26 00:13:28;;;;;;;8.73;5.97;;;7.30;75.50;;;;;;4924709;29;20036;-79
2023/12/26 00:15:54;;;;;;;8.57;6.20;;;7.30;75.50;;;;;;4924533;29;20066;-80
2023/12/26 00:18:20;;;;;;;8.32;6.10;;;7.30;75.40;;;;;;4907018;29;20130;-80
2023/12/26 00:20:46;;;;;;;8.85;6.07;;;7.30;75.60;;;;;;4922763;29;20179;-79
2023/12/26 00:23:13;;;;;;;7.22;5.80;;;7.30;75.50;;;;;;4905343;29;20403;-78
2023/12/26 00:25:39;;;;;;;8.10;5.70;;;7.30;75.50;;;;;;4924146;29;20055;-82
2023/12/26 00:28:06;;;;;;;9.60;6.00;;;7.30;75.60;;;;;;4911012;29;20043;-81
2023/12/26 00:30:32;;;;;;;7.75;6.30;;;7.30;75.60;;;;;;4903753;29;20032;-81
2023/12/26 00:32:59;;;;;;;10.05;6.22;;;7.30;75.70;;;;;;4910914;29;20040;-82
2023/12/26 00:35:25;;;;;;;8.32;6.07;;;7.30;75.70;;;;;;4921746;29;20130;-79
2023/12/26 00:37:51;;;;;;;7.88;5.95;;;7.30;75.90;;;;;;4895347;29;20615;-81
2023/12/26 00:40:17;;;;;;;8.90;6.00;;;7.30;76.00;;;;;;4910543;29;20118;-78
2023/12/26 00:42:44;;;;;;;9.20;6.40;;;7.30;76.00;;;;;;4923678;29;20048;-80
2023/12/26 00:45:12;;;;;;;8.68;5.90;;;7.30;76.00;;;;;;4895013;29;20040;-83
2023/12/26 00:47:38;;;;;;;9.27;6.63;;;7.30;76.00;;;;;;4910829;29;20127;-80
2023/12/26 00:50:05;;;;;;;10.30;6.68;;;7.30;76.00;;;;;;4925001;29;20075;-79
2023/12/26 00:52:34;;;;;;;9.48;6.95;;;7.30;76.00;;;;;;4923291;29;20028;-82
2023/12/26 00:55:00;;;;;;;9.00;6.30;;;7.30;76.00;;;;;;4905982;29;20039;-80
2023/12/26 00:57:27;;;;;;;8.35;6.43;;;7.30;76.00;;;;;;4923820;29;20139;-79
2023/12/26 00:59:53;;;;;;;8.68;6.45;;;7.30;76.10;;;;;;4906166;29;20063;-80
2023/12/26 01:02:22;;;;;;;8.63;6.32;;;7.30;76.00;;;;;;4910500;29;20093;-80
2023/12/26 01:04:48;;;;;;;9.02;6.45;;;7.30;76.10;;;;;;4922937;29;20036;-80
2023/12/26 01:07:14;;;;;;;10.05;6.25;;;7.30;76.00;;;;;;4893811;29;20153;-81
2023/12/26 01:09:41;;;;;;;9.25;6.85;;;7.30;76.70;;;;;;4917700;29;20023;-81
2023/12/26 01:12:07;;;;;;;9.80;6.72;;;7.30;76.00;;;;;;4923716;29;20090;-80
2023/12/26 01:14:33;;;;;;;8.63;6.15;;;7.30;76.10;;;;;;4923515;29;20496;-82
2023/12/26 01:16:59;;;;;;;7.95;6.22;;;7.30;76.30;;;;;;4924098;29;20038;-82
2023/12/26 01:19:25;;;;;;;8.48;6.32;;;7.30;76.30;;;;;;4920357;29;20035;-76
2023/12/26 01:21:51;;;;;;;9.05;6.20;;;7.30;76.20;;;;;;4923969;29;20076;-82
2023/12/26 01:24:17;;;;;;;9.32;6.28;;;7.30;76.10;;;;;;4909375;29;20040;-80
2023/12/26 01:26:44;;;;;;;9.05;6.32;;;7.30;76.10;;;;;;4908144;29;20048;-77
2023/12/26 01:29:10;;;;;;;8.80;6.45;;;7.30;76.10;;;;;;4912957;29;20048;-79
2023/12/26 01:31:36;;;;;;;7.55;5.63;;;7.30;76.10;;;;;;4928225;29;20526;-80
2023/12/26 01:34:03;;;;;;;9.80;6.30;;;7.30;75.90;;;;;;4908718;29;20050;-81
2023/12/26 01:36:30;;;;;;;8.95;6.55;;;7.20;75.80;;;;;;4926257;29;20508;-83
2023/12/26 01:38:57;;;;;;;7.95;6.30;;;7.30;75.90;;;;;;4928188;29;20540;-84
2023/12/26 01:41:23;;;;;;;8.25;6.55;;;7.30;75.90;;;;;;4928126;29;20036;-84
2023/12/26 01:43:49;;;;;;;8.68;6.78;;;7.30;76.00;;;;;;4909329;29;20525;-82
2023/12/26 01:46:16;;;;;;;9.50;6.60;;;7.30;75.90;;;;;;4925755;29;20487;-83
2023/12/26 01:48:45;;;;;;;10.32;7.00;;;7.30;76.10;;;;;;4914184;29;20047;-77
2023/12/26 01:51:14;;;;;;;7.30;6.15;;;7.30;76.10;;;;;;4909568;29;20059;-83
2023/12/26 01:53:41;;;;;;;9.23;6.88;;;7.30;76.20;;;;;;4896823;29;20100;-80
2023/12/26 01:56:10;;;;;;;9.80;7.05;;;7.30;76.20;;;;;;4925646;29;20631;-81
2023/12/26 01:58:37;;;;;;;9.18;6.80;;;7.30;76.30;;;;;;4897397;29;20107;-79
2023/12/26 02:01:04;;;;;;;9.40;6.65;;;7.30;76.30;;;;;;4924933;29;20464;-80
2023/12/26 02:03:32;;;;;;;9.10;6.38;;;7.30;76.30;;;;;;4912911;29;20934;-80
2023/12/26 02:06:00;;;;;;;9.20;6.50;;;7.30;76.30;;;;;;4881397;29;20042;-80
2023/12/26 02:08:28;;;;;;;9.88;7.10;;;7.30;76.50;;;;;;4926541;29;20521;-79
2023/12/26 02:10:54;;;;;;;9.82;7.38;;;7.30;76.40;;;;;;4925332;29;20035;-80
2023/12/26 02:13:21;;;;;;;8.95;6.65;;;7.30;76.40;;;;;;4924536;29;20044;-79
2023/12/26 02:15:50;;;;;;;10.13;7.28;;;7.30;76.20;;;;;;4925760;29;20032;-80
2023/12/26 02:18:16;;;;;;;9.98;7.25;;;7.30;76.40;;;;;;4924335;29;20032;-80
2023/12/26 02:20:43;;;;;;;9.13;6.82;;;7.30;76.40;;;;;;4923802;29;20095;-80
2023/12/26 02:23:09;;;;;;;8.70;6.43;;;7.30;76.50;;;;;;4897181;29;20051;-80
2023/12/26 02:25:35;;;;;;;9.00;6.68;;;7.30;76.40;;;;;;4927015;29;20039;-80
2023/12/26 02:28:02;;;;;;;11.10;7.13;;;7.30;76.50;;;;;;4908657;29;20091;-81
2023/12/26 02:30:30;;;;;;;9.00;7.05;;;7.30;76.40;;;;;;4897226;29;20447;-81
2023/12/26 02:32:59;;;;;;;9.50;7.20;;;7.30;76.40;;;;;;4909065;29;20199;-82
2023/12/26 02:35:25;;;;;;;11.80;6.88;;;7.30;76.40;;;;;;4923925;29;20076;-82
2023/12/26 02:37:51;;;;;;;11.00;7.13;;;7.30;76.40;;;;;;4907931;29;20040;-81
2023/12/26 02:40:17;;;;;;;10.63;7.47;;;7.30;76.40;;;;;;4926445;29;20887;-79
2023/12/26 02:42:43;;;;;;;9.68;7.30;;;7.30;76.30;;;;;;4923543;29;20031;-81
2023/12/26 02:45:10;;;;;;;11.55;7.40;;;7.30;76.40;;;;;;4896020;29;20131;-79
2023/12/26 02:47:36;;;;;;;10.73;6.80;;;7.30;76.50;;;;;;4907161;29;20055;-81
2023/12/26 02:50:02;;;;;;;8.55;6.72;;;7.30;76.40;;;;;;4909256;29;20083;-82
2023/12/26 02:52:28;;;;;;;10.68;7.70;;;7.30;76.50;;;;;;4911917;29;20028;-81
2023/12/26 02:54:54;;;;;;;11.90;8.02;;;7.30;76.50;;;;;;4925945;29;20459;-81
2023/12/26 02:57:20;;;;;;;9.95;7.80;;;7.30;76.50;;;;;;4911556;29;20051;-80
2023/12/26 02:59:46;;;;;;;10.98;7.13;;;7.30;76.50;;;;;;4907070;29;20028;-82
2023/12/26 03:02:12;;;;;;;12.40;7.68;;;7.30;76.60;;;;;;4924513;29;20070;-80
2023/12/26 03:04:38;;;;;;;10.10;7.38;;;7.30;76.50;;;;;;4926196;29;20063;-78
2023/12/26 03:07:05;;;;;;;11.52;7.53;;;7.30;76.60;;;;;;4925855;29;20138;-81
2023/12/26 03:09:31;;;;;;;11.18;7.20;;;7.30;76.60;;;;;;4908224;29;20083;-79
2023/12/26 03:11:57;;;;;;;9.23;7.18;;;7.30;76.60;;;;;;4904876;29;20038;-77
2023/12/26 03:14:23;;;;;;;11.30;7.85;;;7.30;76.60;;;;;;4922720;29;20032;-80
2023/12/26 03:16:49;;;;;;;14.80;7.93;;;7.30;76.70;;;;;;4911907;29;20128;-81
2023/12/26 03:19:15;;;;;;;10.52;7.50;;;7.30;76.70;;;;;;4926638;29;20040;-79
2023/12/26 03:21:41;;;;;;;13.07;7.85;;;7.30;76.70;;;;;;4923499;29;20098;-77
2023/12/26 03:24:07;;;;;;;12.02;7.88;;;7.30;76.70;;;;;;4925008;29;20724;-79
2023/12/26 03:26:33;;;;;;;11.65;8.10;;;7.30;76.70;;;;;;4923860;29;20485;-78
2023/12/26 03:28:59;;;;;;;10.57;7.47;;;7.30;76.60;;;;;;4926334;29;20040;-79
2023/12/26 03:31:25;;;;;;;11.50;7.95;;;7.30;76.70;;;;;;4922141;29;20095;-78
2023/12/26 03:33:51;;;;;;;12.07;7.85;;;7.30;76.70;;;;;;4925117;29;20554;-82
2023/12/26 03:36:17;;;;;;;11.00;7.88;;;7.30;76.70;;;;;;4919291;29;20070;-78
2023/12/26 03:38:45;;;;;;;13.40;8.10;;;7.30;76.60;;;;;;4906897;29;20036;-80
2023/12/26 03:41:11;;;;;;;12.15;8.15;;;7.30;76.70;;;;;;4910947;29;20032;-80
2023/12/26 03:43:37;;;;;;;11.70;7.50;;;7.30;76.70;;;;;;4892319;29;20043;-78
2023/12/26 03:46:04;;;;;;;11.60;8.07;;;7.30;76.70;;;;;;4924227;29;20039;-81
2023/12/26 03:48:30;;;;;;;9.95;7.53;;;7.30;76.80;;;;;;4910425;29;20052;-80
2023/12/26 03:50:56;;;;;;;11.93;8.00;;;7.30;76.80;;;;;;4923390;29;20542;-80
2023/12/26 03:53:22;;;;;;;14.93;8.60;;;7.30;77.40;;;;;;4925407;29;20040;-78
2023/12/26 03:55:50;;;;;;;10.77;7.38;;;7.30;76.80;;;;;;4896279;29;20040;-80
2023/12/26 03:58:16;;;;;;;12.02;8.40;;;7.30;76.80;;;;;;4905327;29;20506;-80
2023/12/26 04:00:42;;;;;;;12.95;8.20;;;7.30;77.40;;;;;;4924561;29;20158;-79
2023/12/26 04:03:09;;;;;;;12.82;7.90;;;7.30;77.10;;;;;;4890442;29;20441;-82
2023/12/26 04:05:35;;;;;;;14.57;8.38;;;7.30;76.90;;;;;;4907406;29;20040;-82
2023/12/26 04:08:03;;;;;;;11.60;7.40;;;7.30;76.90;;;;;;4910153;29;20123;-82
2023/12/26 04:10:30;;;;;;;13.63;8.07;;;7.30;76.90;;;;;;4895178;29;20066;-82
2023/12/26 04:12:56;;;;;;;13.90;7.80;;;7.30;77.00;;;;;;4895250;29;20028;-80
2023/12/26 04:15:22;;;;;;;11.57;8.30;;;7.30;77.00;;;;;;4905826;29;20040;-80
2023/12/26 04:17:49;;;;;;;13.60;8.38;;;7.30;77.00;;;;;;4911748;29;20047;-81
2023/12/26 04:20:15;;;;;;;12.82;8.27;;;7.30;77.00;;;;;;4908815;29;20039;-83
2023/12/26 04:22:41;;;;;;;13.13;8.57;;;7.30;77.10;;;;;;4910932;29;20040;-85
2023/12/26 04:25:07;;;;;;;12.38;7.85;;;7.30;77.10;;;;;;4908926;29;20075;-83
2023/12/26 04:27:34;;;;;;;13.18;8.25;;;7.30;77.80;;;;;;4906942;29;20456;-86
2023/12/26 04:30:01;;;;;;;11.40;8.55;;;7.30;77.20;;;;;;4911082;29;20040;-83
2023/12/26 04:32:28;;;;;;;14.13;8.27;;;7.30;77.40;;;;;;4922759;29;20083;-82
2023/12/26 04:34:54;;;;;;;13.50;8.63;;;7.40;77.60;;;;;;4911494;29;20549;-83
2023/12/26 04:37:21;;;;;;;11.95;8.18;;;7.40;77.70;;;;;;4922881;29;20418;-88
2023/12/26 04:39:47;;;;;;;13.85;8.25;;;7.40;77.90;;;;;;4911990;29;20027;-85
2023/12/26 04:42:13;;;;;;;12.38;8.02;;;7.40;77.90;;;;;;4897968;29;20036;-91
2023/12/26 04:44:40;;;;;;;13.30;8.00;;;7.40;77.90;;;;;;4910353;29;20590;-80
2023/12/26 04:47:06;;;;;;;13.52;7.35;;;7.40;77.90;;;;;;4895218;29;20048;-82
2023/12/26 04:49:33;;;;;;;12.30;8.18;;;7.40;77.90;;;;;;4909787;29;20044;-81
2023/12/26 04:51:59;;;;;;;12.52;7.97;;;7.40;77.80;;;;;;4908542;29;20043;-80
2023/12/26 04:54:25;;;;;;;10.38;7.55;;;7.40;77.70;;;;;;4909653;29;20509;-83
2023/12/26 04:56:51;;;;;;;12.65;7.88;;;7.40;77.70;;;;;;4923691;29;20043;-81
2023/12/26 04:59:17;;;;;;;12.57;8.13;;;7.40;77.70;;;;;;4895065;29;20048;-81
2023/12/26 05:01:43;;;;;;;13.15;7.75;;;7.40;77.90;;;;;;4913047;29;20093;-84
2023/12/26 05:04:10;;;;;;;11.55;7.15;;;7.40;78.10;;;;;;4898090;29;20031;-84
2023/12/26 05:06:38;;;;;;;14.85;8.18;;;7.40;78.30;;;;;;4913765;29;20100;-82
2023/12/26 05:09:04;;;;;;;12.20;7.95;;;7.40;78.40;;;;;;4913796;29;20040;-83
2023/12/26 05:11:30;;;;;;;12.25;7.43;;;7.40;78.60;;;;;;4928234;29;20035;-84
2023/12/26 05:13:57;;;;;;;13.05;8.18;;;7.50;78.70;;;;;;4915453;29;20129;-85
2023/12/26 05:16:23;;;;;;;13.20;7.80;;;7.50;79.00;;;;;;4905290;29;20036;-87
2023/12/26 05:18:50;;;;;;;16.02;10.00;;;7.40;79.00;;;;;;4947973;29;20565;-85
2023/12/26 05:21:20;;;;;;;16.70;9.65;;;7.50;79.10;;;;;;4910926;29;20043;-89
2023/12/26 05:23:47;;;;;;;15.07;9.52;;;7.40;79.00;;;;;;4932311;29;20043;-86
2023/12/26 05:26:14;;;;;;;14.73;9.48;;;7.40;78.90;;;;;;4914471;29;20051;-85
2023/12/26 05:28:42;;;;;;;16.38;8.95;;;7.50;78.90;;;;;;4897262;29;20510;-86
2023/12/26 05:31:08;;;;;;;12.68;8.95;;;7.50;78.80;;;;;;4912484;29;20039;-88
2023/12/26 05:33:35;;;;;;;13.98;8.68;;;7.50;78.80;;;;;;4916829;29;20043;-88
2023/12/26 05:36:04;;;;;;;14.07;8.85;;;7.50;78.90;;;;;;4900299;29;20060;-82
2023/12/26 05:38:31;;;;;;;12.57;8.68;;;7.50;78.70;;;;;;4932893;29;20083;-85
2023/12/26 05:40:57;;;;;;;12.38;8.45;;;7.50;78.70;;;;;;4911604;29;20044;-86
2023/12/26 05:43:23;;;;;;;11.90;8.32;;;7.50;78.80;;;;;;4914147;29;20063;-88
2023/12/26 05:45:49;;;;;;;13.52;8.02;;;7.50;78.70;;;;;;4914652;29;20446;-83
2023/12/26 05:48:15;;;;;;;12.95;8.13;;;7.50;78.70;;;;;;4896382;29;20126;-85
2023/12/26 05:50:42;;;;;;;10.27;7.70;;;7.50;78.80;;;;;;4913117;29;20407;-87
2023/12/26 05:53:08;;;;;;;12.90;8.60;;;7.50;78.80;;;;;;4913636;29;20724;-85
2023/12/26 05:55:34;;;;;;;13.95;8.15;;;7.50;78.80;;;;;;4910146;29;20131;-85
2023/12/26 05:58:00;;;;;;;14.02;7.75;;;7.50;78.90;;;;;;4913931;29;20060;-81
2023/12/26 06:00:26;;;;;;;15.20;7.82;;;7.50;78.80;;;;;;4925966;29;20067;-86
2023/12/26 06:02:53;;;;;;;16.25;8.15;;;7.50;78.80;;;;;;4908874;29;20488;-88
2023/12/26 06:05:19;;;;;;;12.75;8.00;;;7.60;78.90;;;;;;4914488;29;20310;-83
2023/12/26 06:07:45;;;;;;;13.07;8.30;;;7.60;78.90;;;;;;4926654;29;20040;-84
2023/12/26 06:10:11;;;;;;;11.82;7.43;;;7.50;78.80;;;;;;4916570;29;20525;-80
2023/12/26 06:12:37;;;;;;;11.00;7.47;;;7.60;78.90;;;;;;4914436;29;20376;-86
2023/12/26 06:15:04;;;;;;;15.45;9.48;;;7.60;78.90;;;;;;4909920;29;20031;-84
2023/12/26 06:17:31;;;;;;;16.92;10.05;;;7.60;78.90;;;;;;4928289;29;20028;-84
2023/12/26 06:19:58;;;;;;;16.05;9.65;;;7.60;78.90;;;;;;4926890;29;20031;-80
2023/12/26 06:22:24;;;;;;;18.30;9.88;;;7.60;78.80;;;;;;4894834;29;20028;-85
2023/12/26 06:24:50;;;;;;;14.23;9.65;;;7.60;78.70;;;;;;4897610;29;20430;-84
2023/12/26 06:27:16;;;;;;;16.95;10.38;;;7.60;78.70;;;;;;4914320;29;20028;-89
2023/12/26 06:29:42;;;;;;;14.95;9.52;;;7.60;78.60;;;;;;4918555;29;20372;-87
2023/12/26 06:32:08;;;;;;;11.57;8.05;;;7.60;78.50;;;;;;4918216;29;20367;-89
2023/12/26 06:34:35;;;;;;;14.52;9.05;;;7.60;78.50;;;;;;4912321;29;20038;-88
2023/12/26 06:37:01;;;;;;;14.30;8.60;;;7.60;78.50;;;;;;4919209;29;20039;-80
2023/12/26 06:39:27;;;;;;;16.20;8.88;;;7.60;79.10;;;;;;4916633;29;20518;-80
2023/12/26 06:41:53;;;;;;;14.45;8.77;;;7.60;78.50;;;;;;4893915;29;20031;-83
2023/12/26 06:44:19;;;;;;;15.85;8.80;;;7.60;78.50;;;;;;4916919;29;20044;-83
2023/12/26 06:46:47;;;;;;;15.65;8.65;;;7.60;78.50;;;;;;4922392;29;20044;-87
2023/12/26 06:49:16;;;;;;;13.23;8.48;;;7.70;78.60;;;;;;4925398;29;20061;-86
2023/12/26 06:51:46;;;;;;;12.38;8.10;;;7.60;78.50;;;;;;4910126;29;20032;-89
2023/12/26 06:54:13;;;;;;;14.23;8.02;;;7.70;78.50;;;;;;4895080;29;20047;-85
2023/12/26 06:56:39;;;;;;;16.65;8.32;;;7.70;78.50;;;;;;4922928;29;20043;-85
2023/12/26 06:59:05;;;;;;;13.18;8.15;;;7.70;78.50;;;;;;4927111;29;20059;-87
2023/12/26 07:01:33;;;;;;;11.30;7.93;;;7.70;78.50;;;;;;4894006;29;20036;-85
2023/12/26 07:04:00;;;;;;;14.70;8.30;;;7.70;78.50;;;;;;4921281;29;20127;-77
2023/12/26 07:06:27;;;;;;;10.75;7.75;;;7.70;78.70;;;;;;4924561;29;20040;-84
2023/12/26 07:08:53;;;;;;;13.27;6.85;;;7.80;79.30;;;;;;4920856;29;20036;-86
2023/12/26 07:11:19;;;;;;;12.68;7.60;;;7.80;80.90;;;;;;4925843;29;20983;-80
2023/12/26 07:13:45;;;;;;;9.30;6.85;;;7.80;81.60;;;;;;4926376;29;20562;-84
2023/12/26 07:16:11;;;;;;;11.88;6.85;;;7.90;81.70;;;;;;4925807;29;20043;-77
2023/12/26 07:18:37;;;;;;;10.63;6.53;;;7.80;81.30;;;;;;4927319;29;20126;-81
2023/12/26 07:21:03;;;;;;;12.77;6.55;;;7.90;80.90;;;;;;4924904;29;20126;-85
2023/12/26 07:23:29;;;;;;;11.55;6.93;;;7.90;80.60;;;;;;4924977;29;20052;-84
2023/12/26 07:25:55;;;;;;;11.00;6.10;;;7.90;80.60;;;;;;4927166;29;20051;-84
2023/12/26 07:28:21;;;;;;;7.70;5.55;;;7.90;80.30;;;;;;4923638;29;20579;-77
2023/12/26 07:30:47;;;;;;;8.63;5.70;;;7.90;80.50;;;;;;4928071;29;20066;-80
2023/12/26 07:33:13;;;;;;;9.00;5.65;;;8.00;80.50;;;;;;4895232;29;20499;-81
2023/12/26 07:35:40;;;;;;;9.07;5.30;;;8.00;80.70;;;;;;4926643;29;20044;-80
2023/12/26 07:38:06;;;;;;;8.05;5.25;;;8.00;80.70;;;;;;4922927;29;20058;-80
2023/12/26 07:40:32;;;;;;;9.05;5.25;;;8.00;80.50;;;;;;4929490;29;20451;-82
2023/12/26 07:42:58;;;;;;;11.77;4.70;;;8.10;80.50;;;;;;4915805;29;20550;-79
2023/12/26 07:45:25;;;;;;;8.88;5.00;;;8.10;80.50;;;;;;4925917;29;20053;-78
2023/12/26 07:47:55;;;;;;;8.13;4.53;;;8.10;80.60;;;;;;4931202;29;20036;-81
2023/12/26 07:50:22;;;;;;;7.75;4.25;;;8.10;80.70;;;;;;4931036;29;20127;-80
2023/12/26 07:52:48;;;;;;;5.78;4.43;;;8.10;80.70;;;;;;4914004;29;20035;-82
2023/12/26 07:55:14;;;;;;;6.40;4.00;;;8.10;80.90;;;;;;4929588;29;20035;-82
2023/12/26 07:57:40;;;;;;;5.53;3.63;;;8.10;80.90;;;;;;4912437;29;20694;-82
2023/12/26 08:00:09;;;;;;;5.28;3.83;;;8.10;80.90;;;;;;4927311;29;20131;-86
2023/12/26 08:02:40;;;;;;;7.70;3.80;;;8.20;81.00;;;;;;4931677;29;20475;-75
2023/12/26 08:05:06;;;;;;;14.25;4.68;;;8.20;81.60;;;;;;4930809;29;20602;-76
2023/12/26 08:07:32;;;;;;;8.07;3.70;;;8.30;86.70;;;;;;4915930;29;20040;-77
2023/12/26 08:09:58;;;;;;;4.78;3.15;;;8.50;88.80;;;;;;4933231;29;20489;-74
2023/12/26 08:12:24;;;;;;;5.65;3.22;;;8.70;90.20;;;;;;4916735;29;20075;-74
2023/12/26 08:14:50;;;;;;;5.55;2.67;;;8.80;91.00;;;;;;4914163;29;20070;-81
2023/12/26 08:17:16;;;;;;;9.13;3.30;;;9.10;91.50;;;;;;4914581;29;20059;-84
2023/12/26 08:19:42;;;;;;;6.00;3.03;;;9.20;91.40;;;;;;4925395;29;20059;-78
2023/12/26 08:22:08;;;;;;;4.47;3.13;;;9.40;91.60;;;;;;4917091;29;20039;-80
2023/12/26 08:24:34;;;;;;;7.45;2.90;;;9.50;91.50;;;;;;4930649;29;20039;-81
2023/12/26 08:27:00;;;;;;;5.63;3.00;;;9.70;91.70;;;;;;4932673;29;20130;-82
2023/12/26 08:29:26;;;;;;;5.82;2.90;;;9.90;91.30;;;;;;4928066;29;20035;-79
2023/12/26 08:31:53;;;;;;;7.43;2.70;;;10.00;91.20;;;;;;4924088;29;20039;-81
2023/12/26 08:34:19;;;;;;;4.70;2.60;;;10.10;91.00;;;;;;4924534;29;20039;-80
2023/12/26 08:36:45;;;;;;;2.53;2.28;;;10.30;90.80;;;;;;4927678;29;20067;-80
2023/12/26 08:39:11;;;;;;;2.88;2.15;;;10.40;90.70;;;;;;4927160;29;20063;-80
2023/12/26 08:41:38;;;;;;;4.47;2.15;;;10.60;90.50;;;;;;4909812;29;20590;-81
2023/12/26 08:44:04;;;;;;;3.65;2.28;;;10.70;90.30;;;;;;4927280;29;20072;-83
2023/12/26 08:46:31;;;;;;;2.42;1.90;;;10.80;90.20;;;;;;4908793;29;20040;-78
2023/12/26 08:48:57;;;;;;;4.85;2.72;;;10.90;90.10;;;;;;4895640;29;20469;-78
2023/12/26 08:51:23;;;;;;;2.97;2.25;;;11.00;89.40;;;;;;4927681;29;20543;-79
2023/12/26 08:53:49;;;;;;;5.35;2.40;;;10.90;86.60;;;;;;4909905;29;20036;-79
2023/12/26 08:56:15;;;;;;;3.58;2.38;;;10.80;84.40;;;;;;4911901;29;20139;-83
2023/12/26 08:58:41;;;;;;;4.70;2.63;;;10.80;82.80;;;;;;4910884;29;20047;-77
2023/12/26 09:01:09;;;;;;;4.07;2.88;;;10.70;81.30;;;;;;4913534;29;20451;-74
2023/12/26 09:03:35;;;;;;;6.03;2.63;;;10.70;80.40;;;;;;4926881;29;20160;-77
2023/12/26 09:06:01;;;;;;;2.83;2.40;;;10.70;83.00;;;;;;4922983;29;20111;-80
2023/12/26 09:08:27;;;;;;;5.20;2.78;;;10.70;83.50;;;;;;4929205;29;20074;-80
2023/12/26 09:10:53;;;;;;;3.38;2.30;;;10.60;81.90;;;;;;4913050;29;20042;-83
2023/12/26 09:13:21;;;;;;;4.03;2.92;;;10.60;80.70;;;;;;4927640;29;20123;-81
2023/12/26 09:15:50;;;;;;;4.07;2.35;;;10.50;79.90;;;;;;4909844;29;20591;-80
2023/12/26 09:18:16;;;;;;;5.82;2.47;;;10.40;79.00;;;;;;4928828;29;20039;-82
2023/12/26 09:20:43;;;;;;;4.35;2.58;;;10.40;78.50;;;;;;4928465;29;20059;-82
2023/12/26 09:23:11;;;;;;;3.35;2.13;;;10.30;77.80;;;;;;4910440;29;20035;-84
2023/12/26 09:25:37;;;;;;;2.92;1.80;;;10.40;81.60;;;;;;4909116;29;20067;-76
2023/12/26 09:28:03;;;;;;;4.10;1.80;;;10.50;85.00;;;;;;4911632;29;20031;-79
2023/12/26 09:30:29;;;;;;;6.90;1.70;;;10.70;86.50;;;;;;4897131;29;20130;-77
2023/12/26 09:32:56;;;;;;;3.15;2.10;;;10.80;87.50;;;;;;4908684;29;20039;-78
2023/12/26 09:35:22;;;;;;;4.85;2.03;;;11.00;88.20;;;;;;4912156;29;20233;-81
2023/12/26 09:37:49;;;;;;;3.05;1.65;;;11.10;89.00;;;;;;4928137;29;20033;-79
2023/12/26 09:40:15;;;;;;;4.57;1.45;;;11.20;88.90;;;;;;4897566;29;20126;-83
2023/12/26 09:42:41;;;;;;;2.67;1.60;;;11.30;88.30;;;;;;4911691;29;20510;-76
2023/12/26 09:45:10;;;;;;;1.83;1.42;;;11.40;88.40;;;;;;4897069;29;20050;-76
2023/12/26 09:47:40;;;;;;;3.25;1.77;;;11.50;88.10;;;;;;4908383;29;20035;-76
2023/12/26 09:50:07;;;;;;;2.30;1.23;;;11.60;87.80;;;;;;4926428;29;20126;-74
2023/12/26 09:52:35;;;;;;;2.80;1.55;;;11.80;87.50;;;;;;4927945;29;20106;-75
2023/12/26 09:55:02;;;;;;;3.25;1.50;;;11.80;87.30;;;;;;4910500;29;20055;-75
2023/12/26 09:57:29;;;;;;;2.70;1.83;;;11.90;87.40;;;;;;4925970;29;20059;-75
2023/12/26 09:59:55;;;;;;;4.93;1.95;;;12.00;87.80;;;;;;4908730;29;20063;-75
2023/12/26 10:02:22;;;;;;;4.45;2.10;;;12.10;87.80;;;;;;4907179;29;20168;-74
2023/12/26 10:04:48;;;;;;;5.25;2.50;;;12.20;88.00;;;;;;4911991;29;20408;-75
2023/12/26 10:07:14;;;;;;;3.67;1.95;;;12.30;88.50;;;;;;4907792;29;20046;-74
2023/12/26 10:09:41;;;;;;;8.27;2.33;;;12.30;88.50;;;;;;4926071;29;20046;-74
2023/12/26 10:12:07;;;;;;;4.20;2.00;;;12.40;89.00;;;;;;4924473;29;20035;-76
2023/12/26 10:14:34;;;;;;;6.40;2.38;;;12.50;89.50;;;;;;4906042;29;20035;-75
2023/12/26 10:17:00;;;;;;;6.47;1.98;;;12.60;90.00;;;;;;4907604;29;20035;-75
2023/12/26 10:19:26;;;;;;;9.07;2.38;;;12.60;90.00;;;;;;4907697;29;20091;-75
2023/12/26 10:21:53;;;;;;;4.78;2.10;;;12.70;90.00;;;;;;4907297;29;20038;-76
2023/12/26 10:24:20;;;;;;;7.22;1.80;;;12.80;90.00;;;;;;4923373;29;20035;-76
2023/12/26 10:26:47;;;;;;;4.28;1.73;;;12.80;90.00;;;;;;4909476;29;20043;-76
2023/12/26 10:29:14;;;;;;;6.88;2.13;;;12.90;90.10;;;;;;4924252;29;20442;-76
2023/12/26 10:31:41;;;;;;;4.57;2.20;;;12.90;90.00;;;;;;4924058;29;20043;-74
2023/12/26 10:34:20;;;;;;;3.38;1.73;;;13.00;89.80;;;;;;4923314;29;20036;-75
2023/12/26 10:36:50;;;;;;;3.80;1.60;;;13.10;89.30;;;;;;4907886;29;20366;-75
2023/12/26 10:39:16;;;;;;;2.20;1.42;;;13.10;88.90;;;;;;4903799;29;20435;-74
2023/12/26 10:41:47;;;;;;;3.67;1.52;;;13.20;88.80;;;;;;4911607;29;20039;-76
2023/12/26 10:44:17;;;;;;;1.92;1.30;;;13.20;88.30;;;;;;4905685;29;20040;-76
2023/12/26 10:46:45;;;;;;;2.30;1.27;;;13.30;87.90;;;;;;4890798;29;20545;-76
2023/12/26 10:49:22;;;;;;;1.90;1.25;;;13.30;87.60;;;;;;4909207;29;20035;-76
2023/12/26 10:51:52;;;;;;;2.75;1.15;;;13.30;87.10;;;;;;4910690;29;20236;-76
2023/12/26 10:54:25;;;;;;;2.65;1.27;;;13.40;86.80;;;;;;4924970;29;20079;-76
2023/12/26 10:56:52;;;;;;;2.45;1.13;;;13.40;86.50;;;;;;4924536;29;20040;-75
2023/12/26 13:52:44;;;;;;;1.85;0.88;;;9.90;69.10;;;;;;4924496;29;20036;-82
2023/12/26 13:55:10;;;;;;;1.33;0.98;;;9.90;68.90;;;;;;4912124;29;20518;-81
2023/12/26 13:57:39;;;;;;;0.90;0.90;;;9.90;69.00;;;;;;4881499;29;20098;-81
2023/12/26 14:00:05;;;;;;;1.08;0.80;;;9.80;68.80;;;;;;4926442;29;20051;-81
2023/12/26 14:02:38;;;;;;;1.17;0.90;;;9.70;68.10;;;;;;4925007;29;20477;-83
2023/12/26 14:05:04;;;;;;;1.30;1.20;;;9.70;67.90;;;;;;4894411;29;20074;-79
2023/12/26 14:07:31;;;;;;;2.63;1.30;;;9.60;67.80;;;;;;4913238;29;20063;-82
2023/12/26 14:09:57;;;;;;;3.10;1.15;;;9.60;68.40;;;;;;4911652;29;20039;-80
2023/12/26 14:12:24;;;;;;;0.95;0.90;;;9.60;68.20;;;;;;4911855;29;20090;-83
2023/12/26 14:14:50;;;;;;;1.20;1.10;;;9.50;67.60;;;;;;4923309;29;20040;-79
2023/12/26 14:17:16;;;;;;;1.52;1.30;;;9.50;68.00;;;;;;4906929;29;20046;-79
2023/12/26 14:19:43;;;;;;;1.58;1.20;;;9.50;67.30;;;;;;4892848;29;20570;-78
2023/12/26 14:22:09;;;;;;;1.33;1.20;;;9.50;67.40;;;;;;4905638;29;20618;-80
2023/12/26 14:24:35;;;;;;;1.10;0.90;;;9.40;67.80;;;;;;4894156;29;20455;-79
2023/12/26 14:27:06;;;;;;;1.73;1.30;;;9.40;67.60;;;;;;4906100;29;20507;-81
2023/12/26 14:29:32;;;;;;;1.40;1.30;;;9.30;67.10;;;;;;4888599;29;20060;-79
2023/12/26 14:31:58;;;;;;;1.92;1.48;;;9.30;66.80;;;;;;4904386;29;20043;-80
2023/12/26 14:34:24;;;;;;;1.40;1.30;;;9.30;66.20;;;;;;4923057;29;20035;-79
2023/12/26 14:36:50;;;;;;;1.35;1.27;;;9.20;65.80;;;;;;4894154;29;20027;-80
2023/12/26 14:39:16;;;;;;;1.30;1.17;;;9.20;65.40;;;;;;4902653;29;20632;-80
2023/12/26 14:41:42;;;;;;;1.60;1.42;;;9.10;65.30;;;;;;4918136;29;20126;-78
2023/12/26 14:44:08;;;;;;;1.45;1.25;;;9.10;65.20;;;;;;4906599;29;20128;-79
2023/12/26 14:46:34;;;;;;;1.52;1.20;;;9.10;65.00;;;;;;4923426;29;20570;-79
2023/12/26 14:49:00;;;;;;;2.17;1.25;;;9.00;65.10;;;;;;4920241;29;20526;-79
2023/12/26 14:51:26;;;;;;;1.45;1.30;;;9.00;65.10;;;;;;4921558;29;20440;-78
2023/12/26 14:53:52;;;;;;;2.67;1.20;;;9.00;65.20;;;;;;4925738;29;20503;-78
2023/12/26 14:56:18;;;;;;;1.20;1.10;;;8.90;65.10;;;;;;4905151;29;20522;-78
2023/12/26 14:58:44;;;;;;;1.38;1.20;;;8.90;65.50;;;;;;4921328;29;20044;-78
2023/12/26 15:01:10;;;;;;;2.80;1.33;;;8.90;66.40;;;;;;4909503;29;20054;-78
2023/12/26 15:03:36;;;;;;;2.75;1.35;;;8.90;66.10;;;;;;4909201;29;20134;-78
2023/12/26 15:06:02;;;;;;;2.13;1.40;;;8.90;66.20;;;;;;4920315;29;20554;-79
2023/12/26 15:08:28;;;;;;;2.13;1.10;;;8.80;66.60;;;;;;4923133;29;20512;-78
2023/12/26 15:10:55;;;;;;;1.60;1.25;;;8.80;66.70;;;;;;4908605;29;20122;-78
2023/12/26 15:13:21;;;;;;;2.42;1.60;;;8.80;66.20;;;;;;4920354;29;20040;-79
2023/12/26 15:15:47;;;;;;;1.45;1.35;;;8.80;66.10;;;;;;4908965;29;20040;-80
2023/12/26 15:18:13;;;;;;;1.55;1.40;;;8.70;66.10;;;;;;4920883;29;20099;-79
2023/12/26 15:20:40;;;;;;;1.50;1.40;;;8.70;65.70;;;;;;4907904;29;20055;-80
2023/12/26 15:23:06;;;;;;;2.13;1.48;;;8.70;65.30;;;;;;4920960;29;20130;-81
2023/12/26 15:25:33;;;;;;;1.77;1.50;;;8.60;65.40;;;;;;4906177;29;21973;-82
2023/12/26 15:27:59;;;;;;;1.90;1.33;;;8.60;65.50;;;;;;4906882;29;20409;-80
2023/12/26 15:30:25;;;;;;;2.00;1.40;;;8.60;65.70;;;;;;4907713;29;20032;-81
2023/12/26 15:32:51;;;;;;;1.30;1.20;;;8.60;65.40;;;;;;4920856;29;20063;-82
2023/12/26 15:35:17;;;;;;;2.03;1.25;;;8.50;65.30;;;;;;4895888;29;20544;-86
2023/12/26 15:37:45;;;;;;;2.05;1.40;;;8.50;64.80;;;;;;4894298;29;20039;-84
2023/12/26 15:40:14;;;;;;;1.83;1.48;;;8.50;64.90;;;;;;4918806;29;20447;-84